SCFU weather

Loncopan Airport
Futrono, Los RĂ­os Region, Chile

Public forecast

Using degrees Celsius for public forecast. Weather courtesy of forecast.io.

METAR (pilot weather report)

Closest report is Pichoy Airport, 35.5 nm (65.8 km) NW. Retrieved 2019/03/26 01:00 UTC (41 minutes ago):

SCVD 260100Z AUTO 25003KT 220V280 CAVOK 11/10 Q1017

TAF (pilot weather forecast)

Forecast is more than 12 hours old.

Closest forecast is Pichoy Airport, 35.5 nm (65.8 km) NW. Retrieved 2019/03/25 12:00 UTC (14 hours ago):

TAF SCVD 251014Z 2512/2524 VRB03KT 9999 BKN020 TN10/2512Z TX23/2519Z BECMG 2516/2518 18010KT CAVOK BECMG 2521/2523 15005KT